createdAt,value
2018-01-12T00:01:21.702Z,6.87
2018-01-12T00:03:50.023Z,6.93
2018-01-12T00:06:18.356Z,6.82
2018-01-12T00:08:48.320Z,6.80
2018-01-12T00:11:16.625Z,6.49
2018-01-12T00:13:44.936Z,6.53
2018-01-12T00:16:13.256Z,6.29
2018-01-12T00:18:41.657Z,6.09
2018-01-12T00:21:10.948Z,6.04
2018-01-12T00:23:39.280Z,6.19
2018-01-12T00:26:08.358Z,6.41
2018-01-12T00:28:36.706Z,6.52
2018-01-12T00:31:05.041Z,6.67
2018-01-12T00:33:36.058Z,6.83
2018-01-12T00:36:04.384Z,7.00
2018-01-12T00:38:32.702Z,7.09
2018-01-12T00:41:01.018Z,7.10
2018-01-12T00:43:29.348Z,7.21
2018-01-12T00:45:57.711Z,7.27
2018-01-12T00:48:26.136Z,7.33
2018-01-12T00:50:54.467Z,7.40
2018-01-12T00:53:22.794Z,7.44
2018-01-12T00:55:51.892Z,7.36
2018-01-12T00:58:21.016Z,7.43
2018-01-12T01:00:49.372Z,7.32
2018-01-12T01:03:17.761Z,7.31
2018-01-12T01:05:46.898Z,7.43
2018-01-12T01:08:15.260Z,7.33
2018-01-12T01:10:43.575Z,7.37
2018-01-12T01:13:11.909Z,7.41
2018-01-12T01:15:40.240Z,7.37
2018-01-12T01:18:08.566Z,7.26
2018-01-12T01:20:36.892Z,7.16
2018-01-12T01:23:05.224Z,6.91
2018-01-12T01:25:33.540Z,7.02
2018-01-12T01:28:01.877Z,7.07
2018-01-12T01:30:30.217Z,7.11
2018-01-12T01:32:58.545Z,7.22
2018-01-12T01:35:26.857Z,7.31
2018-01-12T01:37:55.183Z,7.30
2018-01-12T01:40:23.544Z,7.44
2018-01-12T01:42:51.849Z,7.38
2018-01-12T01:45:20.204Z,7.47
2018-01-12T01:47:48.532Z,7.39
2018-01-12T01:50:16.862Z,7.49
2018-01-12T01:52:45.179Z,7.54
2018-01-12T01:55:14.267Z,7.52
2018-01-12T01:57:42.613Z,7.50
2018-01-12T02:00:10.958Z,7.56
2018-01-12T02:02:39.282Z,7.64
2018-01-12T02:05:07.613Z,7.63
2018-01-12T02:07:38.531Z,7.60
2018-01-12T02:10:06.909Z,7.54
2018-01-12T02:12:35.217Z,7.50
2018-01-12T02:15:04.324Z,7.58
2018-01-12T02:17:32.660Z,7.64
2018-01-12T02:20:01.032Z,7.58
2018-01-12T02:22:29.369Z,7.59
2018-01-12T02:24:57.705Z,7.50
2018-01-12T02:27:26.809Z,7.54
2018-01-12T02:29:55.190Z,7.55
2018-01-12T02:32:23.507Z,7.49
2018-01-12T02:34:52.607Z,7.37
2018-01-12T02:37:20.941Z,7.23
2018-01-12T02:39:49.276Z,7.20
2018-01-12T02:42:17.625Z,7.23
2018-01-12T02:44:45.950Z,7.24
2018-01-12T02:47:14.293Z,7.24
2018-01-12T02:49:42.619Z,7.22
2018-01-12T02:52:10.966Z,7.29
2018-01-12T02:54:39.300Z,7.14
2018-01-12T02:57:07.623Z,7.28
2018-01-12T02:59:35.980Z,7.02
2018-01-12T03:02:04.321Z,6.69
2018-01-12T03:04:33.420Z,6.56
2018-01-12T03:07:01.738Z,6.43
2018-01-12T03:09:30.067Z,6.58
2018-01-12T03:11:59.174Z,6.68
2018-01-12T03:14:27.526Z,6.70
2018-01-12T03:16:55.842Z,6.77
2018-01-12T03:19:24.181Z,6.79
2018-01-12T03:21:53.283Z,6.84
2018-01-12T03:24:22.655Z,6.81
2018-01-12T03:26:51.092Z,6.74
2018-01-12T03:29:19.445Z,6.76
2018-01-12T03:31:47.762Z,6.82
2018-01-12T03:34:16.128Z,6.89
2018-01-12T03:36:44.439Z,7.01
2018-01-12T03:39:12.785Z,6.98
2018-01-12T03:41:41.236Z,6.89
2018-01-12T03:44:09.560Z,7.02
2018-01-12T03:46:37.904Z,7.13
2018-01-12T03:49:06.996Z,7.20
2018-01-12T03:51:35.319Z,7.09
2018-01-12T03:54:03.661Z,6.85
2018-01-12T03:56:32.057Z,7.03
2018-01-12T03:59:00.408Z,7.19
2018-01-12T04:01:29.508Z,7.32
2018-01-12T04:03:57.827Z,7.35
2018-01-12T04:06:26.183Z,7.46
2018-01-12T04:08:54.518Z,7.56
2018-01-12T04:11:22.843Z,7.56
2018-01-12T04:13:52.893Z,7.56
2018-01-12T04:16:22.137Z,7.20
2018-01-12T04:18:50.472Z,6.90
2018-01-12T04:21:18.816Z,6.64
2018-01-12T04:23:47.152Z,6.72
2018-01-12T04:26:16.546Z,6.89
2018-01-12T04:28:46.227Z,7.12
2018-01-12T04:31:14.550Z,7.24
2018-01-12T04:33:43.646Z,7.25
2018-01-12T04:36:11.985Z,7.34
2018-01-12T04:38:40.314Z,7.33
2018-01-12T04:41:08.767Z,7.45
2018-01-12T04:43:37.121Z,7.45
2018-01-12T04:46:05.458Z,7.47
2018-01-12T04:48:33.788Z,7.49
2018-01-12T04:51:02.136Z,7.47
2018-01-12T04:53:30.511Z,7.52
2018-01-12T04:55:58.822Z,7.49
2018-01-12T04:58:27.153Z,7.49
2018-01-12T05:00:55.484Z,7.44
2018-01-12T05:03:23.816Z,7.28
2018-01-12T05:05:52.149Z,7.37
2018-01-12T05:08:21.273Z,7.44
2018-01-12T05:10:49.607Z,7.44
2018-01-12T05:13:17.950Z,7.27
2018-01-12T05:15:46.313Z,7.21
2018-01-12T05:18:14.701Z,7.29
2018-01-12T05:20:43.041Z,7.34
2018-01-12T05:23:12.165Z,7.40
2018-01-12T05:25:41.611Z,7.39
2018-01-12T05:28:10.403Z,7.33
2018-01-12T05:30:38.743Z,7.32
2018-01-12T05:33:07.074Z,7.40
2018-01-12T05:35:37.441Z,7.34
2018-01-12T05:38:05.777Z,7.32
2018-01-12T05:40:34.132Z,7.34
2018-01-12T05:43:02.446Z,7.29
2018-01-12T05:45:30.812Z,7.27
2018-01-12T05:47:59.949Z,7.24
2018-01-12T05:50:28.286Z,7.16
2018-01-12T05:52:56.662Z,7.05
2018-01-12T05:55:24.980Z,7.01
2018-01-12T05:57:53.307Z,7.04
2018-01-12T06:00:21.631Z,7.04
2018-01-12T06:03:07.523Z,7.01
2018-01-12T06:05:53.530Z,7.05
2018-01-12T06:08:21.843Z,6.98
2018-01-12T06:10:50.253Z,6.95
2018-01-12T06:13:18.606Z,7.06
2018-01-12T06:15:48.855Z,7.07
2018-01-12T06:18:17.179Z,7.07
2018-01-12T06:20:45.503Z,7.05
2018-01-12T06:23:13.823Z,7.06
2018-01-12T06:25:42.151Z,6.84
2018-01-12T06:28:11.239Z,6.67
2018-01-12T06:30:40.356Z,6.58
2018-01-12T06:33:11.459Z,6.43
2018-01-12T06:35:39.801Z,6.40
2018-01-12T06:38:08.121Z,6.34
2018-01-12T06:40:36.465Z,6.51
2018-01-12T06:43:04.784Z,6.68
2018-01-12T06:45:33.866Z,6.78
2018-01-12T06:48:02.192Z,6.82
2018-01-12T06:50:30.599Z,6.83
2018-01-12T06:52:58.982Z,6.92
2018-01-12T06:55:27.329Z,6.96
2018-01-12T06:57:55.661Z,6.86
2018-01-12T07:00:23.991Z,6.02
2018-01-12T07:02:52.334Z,5.69
2018-01-12T07:05:21.451Z,5.33
2018-01-12T07:07:49.784Z,5.56
2018-01-12T07:10:18.135Z,5.86
2018-01-12T07:12:46.474Z,6.01
2018-01-12T07:15:14.810Z,6.10
2018-01-12T07:17:43.164Z,6.27
2018-01-12T07:20:29.070Z,6.40
2018-01-12T07:23:15.028Z,6.44
2018-01-12T07:25:43.374Z,6.53
2018-01-12T07:28:12.476Z,6.64
2018-01-12T07:30:41.973Z,6.61
2018-01-12T07:33:11.080Z,6.13
2018-01-12T07:35:39.424Z,5.67
2018-01-12T07:38:07.752Z,5.46
2018-01-12T07:40:36.109Z,5.29
2018-01-12T07:43:05.206Z,5.09
2018-01-12T07:45:33.666Z,5.18
2018-01-12T07:48:02.004Z,5.49
2018-01-12T07:50:30.335Z,5.75
2018-01-12T07:53:05.255Z,5.89
2018-01-12T07:55:33.656Z,6.04
2018-01-12T07:58:02.079Z,6.06
2018-01-12T08:00:35.968Z,5.85
2018-01-12T08:03:04.308Z,5.90
2018-01-12T08:05:32.662Z,5.64
2018-01-12T08:08:01.005Z,5.62
2018-01-12T08:10:29.355Z,5.91
2018-01-12T08:12:57.679Z,6.15
2018-01-12T08:15:26.034Z,6.37
2018-01-12T08:17:54.359Z,6.43
2018-01-12T08:20:22.751Z,6.63
2018-01-12T08:22:51.845Z,6.79
2018-01-12T08:25:20.365Z,6.91
2018-01-12T08:27:48.681Z,7.02
2018-01-12T08:30:17.002Z,7.13
2018-01-12T08:32:45.336Z,7.16
2018-01-12T08:35:14.413Z,7.26
2018-01-12T08:37:42.737Z,7.39
2018-01-12T08:40:11.071Z,7.16
2018-01-12T08:42:39.425Z,7.39
2018-01-12T08:45:07.763Z,7.50
2018-01-12T08:47:36.895Z,7.35
2018-01-12T08:50:05.218Z,6.75
2018-01-12T08:52:33.559Z,6.64
2018-01-12T08:55:01.916Z,6.70
2018-01-12T08:57:30.233Z,6.76
2018-01-12T08:59:58.583Z,6.51
2018-01-12T09:02:26.910Z,6.58
2018-01-12T09:04:55.292Z,6.88
2018-01-12T09:07:23.634Z,6.94
2018-01-12T09:09:52.302Z,7.07
2018-01-12T09:12:20.649Z,7.09
2018-01-12T09:14:53.351Z,7.04
2018-01-12T09:17:33.226Z,7.18
2018-01-12T09:20:16.232Z,7.42
2018-01-12T09:22:47.710Z,7.37
2018-01-12T09:25:25.799Z,7.44
2018-01-12T09:27:55.886Z,7.57
2018-01-12T09:30:24.205Z,7.32
2018-01-12T09:32:52.544Z,7.52
2018-01-12T09:35:20.882Z,7.81
2018-01-12T09:38:06.890Z,7.49
2018-01-12T09:40:49.012Z,7.72
2018-01-12T09:43:17.340Z,7.81
2018-01-12T09:45:45.682Z,8.01
2018-01-12T09:48:36.719Z,8.08
2018-01-12T09:51:05.068Z,8.28
2018-01-12T09:53:33.411Z,8.06
2018-01-12T09:56:01.756Z,8.01
2018-01-12T09:58:30.088Z,7.97
2018-01-12T10:01:03.316Z,8.08
2018-01-12T10:03:31.629Z,8.09
2018-01-12T10:06:00.765Z,7.96
2018-01-12T10:08:29.085Z,7.87
2018-01-12T10:10:57.423Z,7.21
2018-01-12T10:13:26.542Z,6.96
2018-01-12T10:15:54.873Z,6.77
2018-01-12T10:18:35.151Z,6.52
2018-01-12T10:24:12.813Z,6.54
2018-01-12T10:26:42.885Z,6.54
2018-01-12T10:29:11.265Z,6.52
2018-01-12T10:31:51.336Z,6.26
2018-01-12T10:34:45.307Z,6.58
2018-01-12T10:37:13.650Z,6.44
2018-01-12T10:39:59.541Z,6.84
2018-01-12T10:42:27.874Z,6.77
2018-01-12T10:44:56.224Z,6.87
2018-01-12T10:47:26.205Z,7.08
2018-01-12T10:53:01.946Z,7.09
2018-01-12T10:55:30.277Z,7.31
2018-01-12T10:57:58.602Z,7.66
2018-01-12T11:00:32.642Z,8.02
2018-01-12T11:03:01.730Z,8.32
2018-01-12T11:05:30.053Z,8.25
2018-01-12T11:07:58.379Z,8.17
2018-01-12T11:10:27.475Z,8.19
2018-01-12T11:12:55.856Z,8.22
2018-01-12T11:15:24.177Z,8.13
2018-01-12T11:17:52.520Z,8.45
2018-01-12T11:20:21.610Z,8.19
2018-01-12T11:22:49.946Z,7.36
2018-01-12T11:25:18.261Z,7.74
2018-01-12T11:27:47.396Z,7.89
2018-01-12T11:30:15.734Z,8.03
2018-01-12T11:32:44.960Z,7.88
2018-01-12T11:35:13.365Z,8.22
2018-01-12T11:37:41.706Z,7.77
2018-01-12T11:40:10.864Z,7.41
2018-01-12T11:42:39.202Z,7.12
2018-01-12T11:45:07.544Z,7.10
2018-01-12T11:47:35.900Z,7.17
2018-01-12T11:50:04.246Z,7.43
2018-01-12T11:52:32.561Z,7.52
2018-01-12T11:55:00.883Z,7.87
2018-01-12T11:57:29.220Z,7.74
2018-01-12T11:59:57.569Z,8.01
2018-01-12T12:02:25.904Z,8.24
2018-01-12T12:04:54.240Z,8.53
2018-01-12T12:07:22.566Z,8.69
2018-01-12T12:09:50.904Z,8.93
2018-01-12T12:12:19.249Z,9.00
2018-01-12T12:14:47.588Z,9.13
2018-01-12T12:17:15.933Z,9.17
2018-01-12T12:19:44.309Z,9.32
2018-01-12T12:22:12.637Z,9.39
2018-01-12T12:24:40.966Z,9.31
2018-01-12T12:27:09.313Z,9.40
2018-01-12T12:29:37.656Z,9.35
2018-01-12T12:32:05.995Z,9.34
2018-01-12T12:34:34.331Z,9.40
2018-01-12T12:37:02.674Z,9.46
2018-01-12T12:39:31.022Z,9.46
2018-01-12T12:41:59.375Z,9.39
2018-01-12T12:44:27.720Z,9.49
2018-01-12T12:46:56.053Z,9.47
2018-01-12T12:49:25.133Z,9.31
2018-01-12T12:51:53.591Z,9.12
2018-01-12T12:54:21.940Z,9.09
2018-01-12T12:56:50.304Z,9.03
2018-01-12T12:59:18.649Z,9.11
2018-01-12T13:01:46.970Z,9.13
2018-01-12T13:04:15.327Z,9.23
2018-01-12T13:06:43.646Z,9.29
2018-01-12T13:09:12.714Z,9.28
2018-01-12T13:11:41.042Z,9.39
2018-01-12T13:14:09.380Z,9.41
2018-01-12T13:16:38.484Z,9.37
2018-01-12T13:19:07.351Z,9.38
2018-01-12T13:21:35.683Z,9.45
2018-01-12T13:24:04.057Z,9.39
2018-01-12T13:26:32.400Z,9.20
2018-01-12T13:29:01.897Z,9.03
2018-01-12T13:31:31.008Z,9.15
2018-01-12T13:33:59.370Z,9.11
2018-01-12T13:36:27.716Z,9.04
2018-01-12T13:38:56.389Z,8.89
2018-01-12T13:41:24.720Z,8.86
2018-01-12T13:43:53.051Z,8.93
2018-01-12T13:46:21.359Z,8.99
2018-01-12T13:48:50.472Z,8.61
2018-01-12T13:51:18.806Z,8.66
2018-01-12T13:53:47.127Z,8.71
2018-01-12T13:56:16.224Z,8.49
2018-01-12T13:58:45.313Z,8.63
2018-01-12T14:01:13.638Z,8.73
2018-01-12T14:03:41.982Z,8.78
2018-01-12T14:06:10.302Z,8.56
2018-01-12T14:08:39.089Z,8.66
2018-01-12T14:11:07.450Z,8.54
2018-01-12T14:13:35.783Z,8.66
2018-01-12T14:16:04.116Z,8.72
2018-01-12T14:18:32.455Z,8.88
2018-01-12T14:21:01.567Z,8.95
2018-01-12T14:23:31.783Z,9.00
2018-01-12T14:26:00.118Z,8.98
2018-01-12T14:28:28.458Z,8.98
2018-01-12T14:30:56.782Z,9.05
2018-01-12T14:33:25.111Z,8.93
2018-01-12T14:35:53.460Z,8.87
2018-01-12T14:38:21.800Z,8.88
2018-01-12T14:40:50.162Z,8.92
2018-01-12T14:43:18.504Z,8.86
2018-01-12T14:45:46.870Z,8.94
2018-01-12T14:48:15.205Z,8.89
2018-01-12T14:50:43.527Z,8.88
2018-01-12T14:53:11.882Z,8.87
2018-01-12T14:55:40.973Z,8.79
2018-01-12T14:58:09.300Z,8.83
2018-01-12T15:00:37.644Z,8.83
2018-01-12T15:03:06.742Z,8.74
2018-01-12T15:05:35.079Z,8.63
2018-01-12T15:08:03.411Z,8.50
2018-01-12T15:10:32.117Z,8.50
2018-01-12T15:13:00.463Z,8.46
2018-01-12T15:15:29.592Z,8.36
2018-01-12T15:17:57.953Z,8.24
2018-01-12T15:20:26.291Z,8.28
2018-01-12T15:22:54.625Z,8.08
2018-01-12T15:25:23.736Z,8.20
2018-01-12T15:27:52.072Z,8.15
2018-01-12T15:30:20.412Z,8.19
2018-01-12T15:32:48.747Z,8.19
2018-01-12T15:35:17.086Z,8.19
2018-01-12T15:37:46.200Z,8.28
2018-01-12T15:40:14.530Z,8.27
2018-01-12T15:42:42.875Z,8.36
2018-01-12T15:45:11.225Z,8.37
2018-01-12T15:47:40.303Z,8.19
2018-01-12T15:50:08.663Z,7.97
2018-01-12T15:52:36.994Z,8.02
2018-01-12T15:55:05.327Z,7.97
2018-01-12T15:57:33.663Z,8.03
2018-01-12T16:00:02.014Z,7.90
2018-01-12T16:02:30.342Z,7.89
2018-01-12T16:04:58.975Z,8.07
2018-01-12T16:07:27.309Z,8.14
2018-01-12T16:09:55.654Z,8.13
2018-01-12T16:12:24.005Z,8.11
2018-01-12T16:14:52.346Z,8.07
2018-01-12T16:17:20.679Z,8.17
2018-01-12T16:19:49.041Z,8.19
2018-01-12T16:22:17.372Z,8.22
2018-01-12T16:24:45.714Z,8.28
2018-01-12T16:27:14.053Z,8.21
2018-01-12T16:29:42.401Z,8.13
2018-01-12T16:32:10.747Z,8.11
2018-01-12T16:34:39.075Z,8.29
2018-01-12T16:37:07.400Z,8.27
2018-01-12T16:39:35.758Z,8.33
2018-01-12T16:42:04.077Z,8.42
2018-01-12T16:44:32.385Z,8.38
2018-01-12T16:47:00.719Z,8.35
2018-01-12T16:49:29.057Z,8.30
2018-01-12T16:51:58.169Z,8.36
2018-01-12T16:54:26.520Z,8.47
2018-01-12T16:56:54.864Z,8.42
2018-01-12T16:59:23.192Z,8.42
2018-01-12T17:01:52.286Z,8.39
2018-01-12T17:04:20.632Z,8.44
2018-01-12T17:06:48.967Z,8.26
2018-01-12T17:09:17.292Z,8.26
2018-01-12T17:11:45.641Z,8.31
2018-01-12T17:14:13.977Z,8.40
2018-01-12T17:16:42.303Z,8.44
2018-01-12T17:19:10.611Z,8.44
2018-01-12T17:21:38.939Z,8.45
2018-01-12T17:24:07.255Z,8.31
2018-01-12T17:26:35.608Z,8.43
2018-01-12T17:29:03.948Z,8.43
2018-01-12T17:31:32.279Z,8.42
2018-01-12T17:34:01.480Z,8.44
2018-01-12T17:36:29.829Z,8.42
2018-01-12T17:38:58.177Z,8.37
2018-01-12T17:41:26.499Z,8.37
2018-01-12T17:43:54.830Z,8.25
2018-01-12T17:46:23.213Z,8.10
2018-01-12T17:48:51.549Z,8.18
2018-01-12T17:51:19.919Z,8.26
2018-01-12T17:53:48.274Z,8.08
2018-01-12T17:56:18.058Z,8.18
2018-01-12T17:58:47.411Z,8.14
2018-01-12T18:01:15.778Z,7.78
2018-01-12T18:03:44.190Z,7.75
2018-01-12T18:06:12.564Z,7.80
2018-01-12T18:08:41.715Z,7.85
2018-01-12T18:11:10.032Z,7.97
2018-01-12T18:13:41.142Z,8.02
2018-01-12T18:16:10.727Z,8.06
2018-01-12T18:18:39.677Z,8.02
2018-01-12T18:21:08.021Z,8.14
2018-01-12T18:23:36.603Z,8.25
2018-01-12T18:26:05.199Z,8.29
2018-01-12T18:28:33.725Z,8.25
2018-01-12T18:31:03.560Z,8.28
2018-01-12T18:33:32.407Z,8.33
2018-01-12T18:36:01.552Z,8.27
2018-01-12T18:38:30.619Z,8.27
2018-01-12T18:41:00.036Z,8.26
2018-01-12T18:43:29.390Z,8.33
2018-01-12T18:45:58.687Z,8.29
2018-01-12T18:48:27.949Z,8.30
2018-01-12T18:50:57.623Z,8.33
2018-01-12T18:53:27.388Z,8.25
2018-01-12T18:55:57.146Z,8.21
2018-01-12T18:58:26.841Z,8.18
2018-01-12T19:00:56.607Z,8.27
2018-01-12T19:03:26.277Z,8.21
2018-01-12T19:05:55.992Z,8.19
2018-01-12T19:08:25.781Z,8.21
2018-01-12T19:10:55.564Z,8.20
2018-01-12T19:13:25.367Z,8.23
2018-01-12T19:15:55.117Z,8.20
2018-01-12T19:18:24.984Z,8.06
2018-01-12T19:20:55.687Z,8.07
2018-01-12T19:23:25.556Z,8.14
2018-01-12T19:25:55.441Z,8.08
2018-01-12T19:28:27.110Z,8.14
2018-01-12T19:30:56.966Z,8.07
2018-01-12T19:33:26.736Z,7.94
2018-01-12T19:35:56.632Z,7.91
2018-01-12T19:38:26.569Z,7.90
2018-01-12T19:40:56.372Z,8.01
2018-01-12T19:43:26.171Z,8.02
2018-01-12T19:45:56.048Z,7.89
2018-01-12T19:48:25.980Z,7.89
2018-01-12T19:50:56.771Z,7.95
2018-01-12T19:53:26.665Z,7.98
2018-01-12T19:55:57.036Z,7.96
2018-01-12T19:58:26.829Z,8.02
2018-01-12T20:00:57.492Z,7.93
2018-01-12T20:03:27.308Z,7.96
2018-01-12T20:05:57.334Z,8.03
2018-01-12T20:08:28.094Z,8.11
2018-01-12T20:10:58.381Z,8.15
2018-01-12T20:13:28.916Z,8.14
2018-01-12T20:15:58.914Z,8.17
2018-01-12T20:18:28.868Z,8.14
2018-01-12T20:20:59.342Z,8.07
2018-01-12T20:23:29.183Z,8.07
2018-01-12T20:25:59.192Z,7.91
2018-01-12T20:28:29.973Z,7.99
2018-01-12T20:31:01.683Z,7.96
2018-01-12T20:33:32.401Z,7.99
2018-01-12T20:36:02.331Z,8.00
2018-01-12T20:38:32.213Z,8.09
2018-01-12T20:41:02.474Z,8.04
2018-01-12T20:43:32.359Z,7.96
2018-01-12T20:46:02.254Z,7.71
2018-01-12T20:48:32.086Z,7.58
2018-01-12T20:51:02.018Z,7.67
2018-01-12T20:53:32.540Z,7.85
2018-01-12T20:56:02.456Z,7.90
2018-01-12T20:58:32.317Z,7.86
2018-01-12T21:01:02.195Z,7.46
2018-01-12T21:03:32.969Z,7.41
2018-01-12T21:06:02.885Z,7.32
2018-01-12T21:08:32.931Z,7.29
2018-01-12T21:11:03.710Z,7.42
2018-01-12T21:13:33.595Z,7.28
2018-01-12T21:16:03.602Z,7.18
2018-01-12T21:18:34.249Z,7.19
2018-01-12T21:21:04.172Z,6.88
2018-01-12T21:23:34.063Z,7.15
2018-01-12T21:26:03.900Z,7.08
2018-01-12T21:28:33.716Z,7.10
2018-01-12T21:31:03.591Z,7.12
2018-01-12T21:33:33.382Z,7.19
2018-01-12T21:36:03.272Z,7.07
2018-01-12T21:38:33.129Z,7.05
2018-01-12T21:41:05.119Z,7.26
2018-01-12T21:43:34.988Z,7.17
2018-01-12T21:46:05.878Z,6.82
2018-01-12T21:48:40.910Z,6.58
2018-01-12T21:51:10.774Z,6.67
2018-01-12T21:53:40.627Z,6.44
2018-01-12T21:56:11.103Z,6.60
2018-01-12T21:58:41.681Z,6.79
2018-01-12T22:01:11.644Z,6.90
2018-01-12T22:03:41.517Z,7.01
2018-01-12T22:06:11.365Z,7.10
2018-01-12T22:08:43.852Z,7.24
2018-01-12T22:11:13.808Z,7.36
2018-01-12T22:13:43.727Z,7.41
2018-01-12T22:16:13.537Z,7.50
2018-01-12T22:18:43.541Z,7.35
2018-01-12T22:21:13.443Z,7.46
2018-01-12T22:23:43.321Z,7.60
2018-01-12T22:26:13.115Z,7.71
2018-01-12T22:28:42.915Z,7.76
2018-01-12T22:31:13.102Z,7.79
2018-01-12T22:33:42.851Z,7.80
2018-01-12T22:36:12.744Z,7.81
2018-01-12T22:43:50.637Z,7.93
2018-01-12T22:46:20.257Z,8.01
2018-01-12T22:48:49.986Z,7.99
2018-01-12T22:51:18.951Z,7.92
2018-01-12T22:53:48.589Z,8.02
2018-01-12T22:56:17.102Z,7.94
2018-01-12T22:58:46.800Z,7.81
2018-01-12T23:01:15.204Z,7.39
2018-01-12T23:03:44.714Z,7.58
2018-01-12T23:06:13.066Z,7.45
2018-01-12T23:08:41.436Z,7.57
2018-01-12T23:11:10.425Z,7.68
2018-01-12T23:13:38.759Z,7.63
2018-01-12T23:16:07.121Z,7.61
2018-01-12T23:18:35.473Z,7.63
2018-01-12T23:21:03.836Z,7.69
2018-01-12T23:23:32.174Z,7.28
2018-01-12T23:26:00.522Z,7.28
2018-01-12T23:28:28.857Z,7.28
2018-01-12T23:30:57.209Z,7.29
2018-01-12T23:33:25.539Z,7.38
2018-01-12T23:35:53.866Z,7.33
2018-01-12T23:38:22.198Z,7.50
2018-01-12T23:40:51.318Z,7.51
2018-01-12T23:43:19.662Z,7.24
2018-01-12T23:45:47.991Z,7.32
2018-01-12T23:48:16.338Z,7.06
2018-01-12T23:50:45.434Z,7.30
2018-01-12T23:53:13.759Z,7.19
2018-01-12T23:55:42.939Z,7.23
2018-01-12T23:58:11.260Z,7.32
